Time;durP1;ratioP1;P1;durP2;ratioP2;P2;SDS_P1;SDS_P2;PMS_P1;PMS_P2;Temp;Humidity;BMP_temperature;BMP_pressure;BME280_temperature;BME280_humidity;BME280_pressure;Samples;Min_cycle;Max_cycle;Signal;HPM_P1;HPM_P2
2023/09/22 00:00:37;;;;;;;58.07;56.20;;;;;;;;;;5004064;28;20683;-89
2023/09/22 00:03:05;;;;;;;62.43;60.43;;;;;;;;;;4997361;28;21414;-93
2023/09/22 00:05:31;;;;;;;58.27;56.43;;;;;;;;;;4999917;28;20224;-89
2023/09/22 00:07:57;;;;;;;54.57;52.57;;;;;;;;;;5002617;28;20224;-90
2023/09/22 00:10:23;;;;;;;60.23;58.23;;;;;;;;;;5003386;28;20192;-92
2023/09/22 00:12:49;;;;;;;58.57;56.70;;;;;;;;;;4998092;28;20988;-89
2023/09/22 00:15:15;;;;;;;55.57;53.80;;;;;;;;;;5002481;28;20241;-90
2023/09/22 00:17:42;;;;;;;52.00;50.30;;;;;;;;;;4993539;28;20227;-92
2023/09/22 00:20:09;;;;;;;61.03;59.10;;;;;;;;;;5022148;28;20206;-91
2023/09/22 00:22:35;;;;;;;70.43;68.23;;;;;;;;;;4998398;28;20263;-90
2023/09/22 00:25:01;;;;;;;72.67;70.20;;;;;;;;;;5001925;28;20227;-91
2023/09/22 00:27:27;;;;;;;73.40;71.07;;;;;;;;;;4999507;28;20198;-92
2023/09/22 00:29:53;;;;;;;86.40;83.80;;;;;;;;;;5001855;28;20212;-91
2023/09/22 00:32:19;;;;;;;73.07;70.80;;;;;;;;;;4999508;28;20194;-89
2023/09/22 00:34:45;;;;;;;67.20;64.80;;;;;;;;;;4984332;28;20303;-91
2023/09/22 00:37:11;;;;;;;57.47;55.47;;;;;;;;;;5030743;28;20243;-90
2023/09/22 00:39:37;;;;;;;55.87;54.07;;;;;;;;;;5037471;28;20207;-91
2023/09/22 00:42:08;;;;;;;63.87;61.53;;;;;;;;;;5029810;28;20191;-91
2023/09/22 00:44:34;;;;;;;68.80;66.63;;;;;;;;;;5037177;28;20196;-91
2023/09/22 00:47:00;;;;;;;66.50;64.33;;;;;;;;;;5026398;28;20201;-92
2023/09/22 00:49:27;;;;;;;67.83;65.67;;;;;;;;;;5033612;28;20213;-93
2023/09/22 00:51:53;;;;;;;67.87;65.70;;;;;;;;;;5020693;28;20188;-92
2023/09/22 00:54:19;;;;;;;67.07;64.93;;;;;;;;;;5015245;28;20212;-92
2023/09/22 00:56:46;;;;;;;64.97;62.77;;;;;;;;;;5036779;28;20288;-91
2023/09/22 00:59:13;;;;;;;69.73;67.50;;;;;;;;;;5036146;28;20197;-91
2023/09/22 01:01:39;;;;;;;54.53;52.80;;;;;;;;;;5037373;28;20213;-90
2023/09/22 01:04:05;;;;;;;55.37;53.57;;;;;;;;;;5031461;28;20269;-92
2023/09/22 01:06:32;;;;;;;57.83;56.03;;;;;;;;;;5037472;28;20199;-91
2023/09/22 01:09:00;;;;;;;57.80;56.00;;;;;;;;;;5034640;28;20215;-90
2023/09/22 01:11:26;;;;;;;61.33;59.23;;;;;;;;;;5010176;28;20190;-89
2023/09/22 01:13:52;;;;;;;60.27;58.37;;;;;;;;;;5022360;28;20236;-91
2023/09/22 01:16:18;;;;;;;69.13;66.97;;;;;;;;;;5037358;28;20189;-91
2023/09/22 01:18:44;;;;;;;75.70;73.40;;;;;;;;;;5034469;28;20186;-91
2023/09/22 01:21:13;;;;;;;69.40;67.20;;;;;;;;;;5030958;28;20274;-91
2023/09/22 01:23:39;;;;;;;61.87;59.13;;;;;;;;;;5021147;28;20279;-90
2023/09/22 01:26:05;;;;;;;60.20;58.30;;;;;;;;;;5033284;28;20223;-92
2023/09/22 01:28:31;;;;;;;65.33;63.33;;;;;;;;;;5039286;28;20236;-91
2023/09/22 01:30:58;;;;;;;67.93;65.73;;;;;;;;;;5040979;28;20188;-92
2023/09/22 01:33:24;;;;;;;61.03;59.03;;;;;;;;;;5041452;28;20188;-90
2023/09/22 01:35:50;;;;;;;60.00;58.03;;;;;;;;;;5041235;28;20208;-92
2023/09/22 01:38:18;;;;;;;77.83;75.43;;;;;;;;;;5037599;28;20196;-91
2023/09/22 01:40:45;;;;;;;66.40;64.30;;;;;;;;;;5039780;28;20354;-93
2023/09/22 01:43:11;;;;;;;60.27;58.37;;;;;;;;;;5041199;28;20264;-90
2023/09/22 01:45:38;;;;;;;64.43;62.37;;;;;;;;;;5022492;28;20201;-89
2023/09/22 01:48:04;;;;;;;72.43;70.20;;;;;;;;;;5042039;28;20236;-92
2023/09/22 01:50:34;;;;;;;65.77;63.60;;;;;;;;;;5024245;28;20195;-91
2023/09/22 01:53:00;;;;;;;59.33;57.33;;;;;;;;;;5034498;28;20197;-90
2023/09/22 01:55:26;;;;;;;64.03;61.83;;;;;;;;;;5038198;28;20212;-89
2023/09/22 01:57:52;;;;;;;56.07;54.27;;;;;;;;;;5039745;28;20567;-91
2023/09/22 02:00:18;;;;;;;58.97;57.00;;;;;;;;;;5039525;28;20254;-91
2023/09/22 02:02:48;;;;;;;58.20;56.23;;;;;;;;;;5040113;28;20203;-91
2023/09/22 02:05:14;;;;;;;59.97;57.97;;;;;;;;;;5039673;28;20209;-92
2023/09/22 02:07:42;;;;;;;58.13;56.20;;;;;;;;;;5039307;28;20215;-91
2023/09/22 02:10:09;;;;;;;71.13;68.83;;;;;;;;;;5022976;28;20270;-91
2023/09/22 02:12:36;;;;;;;64.67;62.63;;;;;;;;;;5022926;28;20185;-91
2023/09/22 02:15:02;;;;;;;66.17;63.87;;;;;;;;;;5040038;28;20202;-91
2023/09/22 02:17:30;;;;;;;63.43;61.23;;;;;;;;;;5040379;28;20192;-91
2023/09/22 02:19:57;;;;;;;62.07;60.07;;;;;;;;;;5006077;28;20200;-91
2023/09/22 02:22:23;;;;;;;64.67;62.53;;;;;;;;;;5029567;28;20262;-91
2023/09/22 02:24:50;;;;;;;67.50;65.33;;;;;;;;;;5031409;28;20214;-91
2023/09/22 02:27:16;;;;;;;66.90;64.70;;;;;;;;;;5034235;28;20188;-91
2023/09/22 02:29:42;;;;;;;63.97;61.83;;;;;;;;;;5032001;28;20208;-90
2023/09/22 02:32:09;;;;;;;64.33;62.13;;;;;;;;;;5039673;28;20222;-91
2023/09/22 02:34:36;;;;;;;62.10;60.13;;;;;;;;;;5031934;28;20209;-91
2023/09/22 02:37:02;;;;;;;59.97;58.07;;;;;;;;;;5034156;28;20185;-90
2023/09/22 02:39:28;;;;;;;55.90;54.10;;;;;;;;;;5040944;28;20205;-91
2023/09/22 02:41:54;;;;;;;68.53;66.33;;;;;;;;;;5037810;28;20189;-90
2023/09/22 02:44:20;;;;;;;64.07;61.87;;;;;;;;;;5037037;28;20224;-91
2023/09/22 02:46:46;;;;;;;56.70;54.90;;;;;;;;;;5029075;28;20217;-92
2023/09/22 02:49:12;;;;;;;56.90;55.10;;;;;;;;;;5020289;28;20720;-92
2023/09/22 02:51:38;;;;;;;61.40;59.07;;;;;;;;;;5037697;28;20185;-90
2023/09/22 02:54:04;;;;;;;55.53;53.80;;;;;;;;;;5017691;28;20198;-90
2023/09/22 02:56:32;;;;;;;57.10;54.73;;;;;;;;;;5036727;28;20188;-92
2023/09/22 02:58:58;;;;;;;51.93;50.23;;;;;;;;;;5037659;28;20694;-92
2023/09/22 03:01:24;;;;;;;54.33;52.53;;;;;;;;;;5041028;28;20227;-91
2023/09/22 03:03:51;;;;;;;56.93;54.83;;;;;;;;;;5021419;28;20255;-92
2023/09/22 03:06:19;;;;;;;52.93;51.10;;;;;;;;;;5040061;28;20248;-90
2023/09/22 03:08:45;;;;;;;49.80;48.20;;;;;;;;;;5028093;28;20228;-91
2023/09/22 03:11:11;;;;;;;52.77;51.07;;;;;;;;;;5029206;28;20178;-91
2023/09/22 03:13:37;;;;;;;54.13;52.40;;;;;;;;;;5032693;28;20202;-91
2023/09/22 03:16:03;;;;;;;60.20;58.23;;;;;;;;;;5017464;28;20185;-90
2023/09/22 03:18:29;;;;;;;60.03;58.13;;;;;;;;;;5020563;28;20228;-92
2023/09/22 03:20:55;;;;;;;64.50;62.40;;;;;;;;;;5032129;28;20196;-92
2023/09/22 03:23:21;;;;;;;61.77;59.77;;;;;;;;;;5038765;28;20242;-91
2023/09/22 03:25:47;;;;;;;62.27;60.27;;;;;;;;;;5038067;28;20721;-91
2023/09/22 03:28:15;;;;;;;64.33;62.13;;;;;;;;;;5039360;28;20219;-92
2023/09/22 03:30:41;;;;;;;63.30;61.30;;;;;;;;;;5028854;28;20189;-90
2023/09/22 03:33:07;;;;;;;62.97;60.87;;;;;;;;;;5039290;28;20276;-90
2023/09/22 03:35:36;;;;;;;61.70;59.67;;;;;;;;;;5030022;28;20205;-91
2023/09/22 03:38:03;;;;;;;63.90;61.90;;;;;;;;;;5038035;28;20277;-90
2023/09/22 03:40:33;;;;;;;63.70;61.70;;;;;;;;;;5037955;28;20199;-91
2023/09/22 03:43:00;;;;;;;64.47;62.17;;;;;;;;;;5037827;28;20193;-91
2023/09/22 03:45:26;;;;;;;60.57;58.60;;;;;;;;;;5037409;28;20741;-91
2023/09/22 03:47:53;;;;;;;60.17;58.17;;;;;;;;;;5028384;28;20705;-90
2023/09/22 03:50:19;;;;;;;57.67;55.80;;;;;;;;;;5034991;28;20239;-91
2023/09/22 03:52:45;;;;;;;57.83;55.83;;;;;;;;;;5036763;28;20624;-90
2023/09/22 03:55:14;;;;;;;58.03;56.03;;;;;;;;;;5031161;28;20204;-92
2023/09/22 03:57:40;;;;;;;59.67;57.77;;;;;;;;;;5037427;28;20259;-90
2023/09/22 04:00:16;;;;;;;63.67;61.57;;;;;;;;;;5038886;28;20189;-92
2023/09/22 04:02:43;;;;;;;61.50;59.50;;;;;;;;;;5032367;28;20594;-90
2023/09/22 04:05:11;;;;;;;63.17;61.17;;;;;;;;;;5038544;28;20287;-92
2023/09/22 04:07:37;;;;;;;63.23;61.20;;;;;;;;;;5036750;28;20189;-90
2023/09/22 04:10:08;;;;;;;63.50;61.30;;;;;;;;;;5015505;28;20181;-91
2023/09/22 04:12:38;;;;;;;66.43;64.20;;;;;;;;;;5027117;28;20200;-91
2023/09/22 04:15:04;;;;;;;66.13;63.83;;;;;;;;;;5035116;28;20216;-92
2023/09/22 04:17:35;;;;;;;69.67;67.47;;;;;;;;;;5019954;28;20187;-92
2023/09/22 04:20:06;;;;;;;62.80;60.70;;;;;;;;;;5033546;28;20188;-92
2023/09/22 04:22:32;;;;;;;64.60;62.57;;;;;;;;;;5033476;28;20811;-90
2023/09/22 04:25:03;;;;;;;62.73;60.67;;;;;;;;;;5021202;28;20215;-90
2023/09/22 04:27:34;;;;;;;66.13;63.37;;;;;;;;;;5033426;28;20229;-90
2023/09/22 04:30:00;;;;;;;66.07;63.97;;;;;;;;;;5020801;28;20188;-92
2023/09/22 04:32:33;;;;;;;62.60;60.50;;;;;;;;;;5038713;28;20194;-90
2023/09/22 04:35:02;;;;;;;60.23;58.23;;;;;;;;;;5037204;28;20214;-92
2023/09/22 04:37:28;;;;;;;58.00;56.10;;;;;;;;;;5039260;28;20216;-90
2023/09/22 04:39:54;;;;;;;61.03;59.03;;;;;;;;;;5038395;28;20247;-91
2023/09/22 04:42:22;;;;;;;62.17;60.17;;;;;;;;;;5031469;28;20191;-92
2023/09/22 04:44:53;;;;;;;61.50;59.40;;;;;;;;;;5038025;28;20351;-91
2023/09/22 04:47:19;;;;;;;59.73;57.80;;;;;;;;;;5035788;28;20192;-91
2023/09/22 04:49:45;;;;;;;59.93;57.97;;;;;;;;;;5037168;28;20291;-91
2023/09/22 04:52:11;;;;;;;69.30;66.97;;;;;;;;;;5029612;28;20185;-92
2023/09/22 04:54:37;;;;;;;65.57;63.37;;;;;;;;;;5028248;28;20312;-90
2023/09/22 04:57:03;;;;;;;65.43;62.63;;;;;;;;;;5030433;28;20181;-91
2023/09/22 04:59:29;;;;;;;61.90;59.77;;;;;;;;;;5036714;28;20621;-90
2023/09/22 05:01:57;;;;;;;61.83;59.73;;;;;;;;;;5031848;28;20266;-91
2023/09/22 05:04:23;;;;;;;64.90;62.90;;;;;;;;;;5039610;28;20268;-91
2023/09/22 05:06:50;;;;;;;62.77;60.53;;;;;;;;;;5020013;28;20439;-88
2023/09/22 05:09:16;;;;;;;64.60;62.50;;;;;;;;;;5023365;28;20669;-91
2023/09/22 05:11:42;;;;;;;63.50;61.43;;;;;;;;;;5028605;28;20204;-90
2023/09/22 05:14:08;;;;;;;63.77;61.67;;;;;;;;;;5024434;28;20212;-91
2023/09/22 05:16:35;;;;;;;63.60;61.53;;;;;;;;;;5043178;28;20180;-91
2023/09/22 05:19:02;;;;;;;60.03;57.87;;;;;;;;;;5041666;28;20654;-91
2023/09/22 05:21:28;;;;;;;63.87;61.77;;;;;;;;;;5040491;28;20192;-91
2023/09/22 05:23:54;;;;;;;64.77;62.50;;;;;;;;;;5036212;28;20216;-91
2023/09/22 05:26:21;;;;;;;62.80;60.80;;;;;;;;;;5036777;28;20190;-90
2023/09/22 05:28:47;;;;;;;65.63;63.23;;;;;;;;;;5037325;28;20651;-90
2023/09/22 05:31:14;;;;;;;62.83;60.30;;;;;;;;;;5033579;28;20180;-91
2023/09/22 05:33:40;;;;;;;63.53;61.43;;;;;;;;;;5033747;28;20205;-92
2023/09/22 05:36:06;;;;;;;63.40;61.27;;;;;;;;;;5024965;28;20195;-92
2023/09/22 05:38:32;;;;;;;61.57;59.37;;;;;;;;;;5041918;28;20198;-92
2023/09/22 05:40:58;;;;;;;56.13;54.23;;;;;;;;;;5042544;28;20239;-91
2023/09/22 05:43:25;;;;;;;55.40;53.53;;;;;;;;;;5045217;28;20189;-92
2023/09/22 05:45:54;;;;;;;56.07;53.87;;;;;;;;;;5042874;28;20185;-91
2023/09/22 05:48:21;;;;;;;48.07;46.43;;;;;;;;;;5020626;28;20784;-92
2023/09/22 05:50:55;;;;;;;63.13;60.87;;;;;;;;;;5021192;28;20233;-91
2023/09/22 05:53:21;;;;;;;68.03;65.63;;;;;;;;;;5033192;28;20188;-91
2023/09/22 05:55:47;;;;;;;81.60;79.07;;;;;;;;;;5015924;28;20215;-89
2023/09/22 05:58:13;;;;;;;87.00;84.07;;;;;;;;;;5027063;28;20220;-91
2023/09/22 06:00:39;;;;;;;78.87;76.27;;;;;;;;;;5038035;28;20196;-92
2023/09/22 06:03:06;;;;;;;72.07;69.80;;;;;;;;;;5036109;28;20200;-91
2023/09/22 06:05:35;;;;;;;57.60;55.57;;;;;;;;;;5021851;28;20631;-92
2023/09/22 06:08:01;;;;;;;60.73;58.77;;;;;;;;;;5026354;28;20243;-93
2023/09/22 06:10:27;;;;;;;58.17;56.13;;;;;;;;;;5036526;28;20698;-92
2023/09/22 06:12:53;;;;;;;50.43;48.80;;;;;;;;;;5017498;28;20260;-93
2023/09/22 06:15:19;;;;;;;46.33;44.83;;;;;;;;;;5038473;28;20284;-90
2023/09/22 06:17:46;;;;;;;49.17;47.57;;;;;;;;;;5041779;28;20249;-92
2023/09/22 06:20:15;;;;;;;57.00;55.10;;;;;;;;;;5038597;28;20199;-91
2023/09/22 06:22:42;;;;;;;48.20;46.43;;;;;;;;;;5033862;28;20184;-94
2023/09/22 06:25:09;;;;;;;48.40;46.83;;;;;;;;;;5042702;28;20197;-92
2023/09/22 06:27:35;;;;;;;54.60;52.80;;;;;;;;;;5037164;28;20280;-92
2023/09/22 06:30:03;;;;;;;51.77;50.03;;;;;;;;;;5038915;28;20202;-93
2023/09/22 06:32:29;;;;;;;57.33;55.43;;;;;;;;;;5044795;28;20184;-93
2023/09/22 06:34:56;;;;;;;59.57;57.57;;;;;;;;;;5008734;28;20215;-93
2023/09/22 06:37:24;;;;;;;55.77;53.77;;;;;;;;;;5021574;28;20207;-93
2023/09/22 06:39:51;;;;;;;53.50;51.70;;;;;;;;;;5040974;28;20185;-95
2023/09/22 06:42:17;;;;;;;58.47;56.37;;;;;;;;;;5032614;28;20642;-94
2023/09/22 06:44:46;;;;;;;59.80;57.90;;;;;;;;;;5027502;28;20247;-95
2023/09/22 06:47:12;;;;;;;58.23;56.33;;;;;;;;;;5043154;28;20196;-92
2023/09/22 06:49:41;;;;;;;55.17;53.30;;;;;;;;;;5013569;28;20710;-93
2023/09/22 06:52:10;;;;;;;55.07;53.30;;;;;;;;;;5036710;28;20192;-94
2023/09/22 06:54:39;;;;;;;59.47;57.57;;;;;;;;;;5035556;28;20192;-94
2023/09/22 06:57:10;;;;;;;63.83;61.63;;;;;;;;;;5036247;28;20190;-93
2023/09/22 06:59:36;;;;;;;60.37;58.43;;;;;;;;;;5017543;28;20194;-93
2023/09/22 07:02:03;;;;;;;63.43;61.40;;;;;;;;;;5037097;28;20708;-94
2023/09/22 07:04:29;;;;;;;64.30;62.03;;;;;;;;;;5031289;28;20216;-94
2023/09/22 07:06:59;;;;;;;65.17;63.17;;;;;;;;;;5048024;28;20199;-94
2023/09/22 07:09:25;;;;;;;65.40;63.30;;;;;;;;;;5026703;28;20248;-93
2023/09/22 07:11:52;;;;;;;62.53;60.50;;;;;;;;;;5007560;28;20191;-95
2023/09/22 07:14:19;;;;;;;66.27;64.17;;;;;;;;;;5038264;28;20200;-92
2023/09/22 07:16:45;;;;;;;64.60;62.50;;;;;;;;;;5026318;28;20199;-93
2023/09/22 07:19:14;;;;;;;60.93;58.67;;;;;;;;;;5044951;28;20188;-94
2023/09/22 07:21:40;;;;;;;57.03;55.17;;;;;;;;;;5038116;28;20714;-94
2023/09/22 07:24:06;;;;;;;57.40;55.50;;;;;;;;;;5011361;28;20228;-93
2023/09/22 07:26:32;;;;;;;53.93;52.23;;;;;;;;;;5012115;28;20233;-96
2023/09/22 07:28:58;;;;;;;53.30;51.50;;;;;;;;;;5022366;28;20215;-92
2023/09/22 07:31:30;;;;;;;53.90;51.93;;;;;;;;;;5052100;28;20210;-95
2023/09/22 07:33:58;;;;;;;55.07;53.27;;;;;;;;;;5044188;28;20224;-94
2023/09/22 07:36:26;;;;;;;51.00;49.23;;;;;;;;;;5032447;28;20557;-94
2023/09/22 07:38:53;;;;;;;55.20;53.27;;;;;;;;;;4991485;28;20207;-95
2023/09/22 07:41:19;;;;;;;50.90;49.17;;;;;;;;;;5029103;28;20181;-95
2023/09/22 07:43:45;;;;;;;55.03;53.27;;;;;;;;;;5037969;28;20190;-92
2023/09/22 07:46:11;;;;;;;56.87;54.90;;;;;;;;;;5037817;28;20193;-94
2023/09/22 07:48:41;;;;;;;53.23;51.50;;;;;;;;;;5025816;28;20231;-94
2023/09/22 07:51:07;;;;;;;53.47;51.80;;;;;;;;;;5047089;28;20203;-93
2023/09/22 07:53:33;;;;;;;52.07;50.40;;;;;;;;;;5034010;28;20252;-95
2023/09/22 07:55:59;;;;;;;53.70;51.80;;;;;;;;;;5019161;28;20189;-93
2023/09/22 07:58:29;;;;;;;58.60;56.60;;;;;;;;;;5021320;28;20190;-92
2023/09/22 08:00:58;;;;;;;54.53;52.73;;;;;;;;;;5019434;28;20198;-92
2023/09/22 08:03:34;;;;;;;60.50;58.50;;;;;;;;;;5036726;28;20189;-93
2023/09/22 08:06:02;;;;;;;54.23;52.43;;;;;;;;;;5015844;28;20186;-94
2023/09/22 08:08:30;;;;;;;50.03;48.37;;;;;;;;;;5033910;28;20272;-90
2023/09/22 08:10:58;;;;;;;53.63;51.87;;;;;;;;;;5007060;28;20192;-90
2023/09/22 08:13:24;;;;;;;52.60;50.93;;;;;;;;;;5020087;28;20185;-91
2023/09/22 08:15:54;;;;;;;52.73;50.97;;;;;;;;;;5044340;28;20187;-94
2023/09/22 08:18:20;;;;;;;49.20;47.30;;;;;;;;;;5036067;28;20177;-92
2023/09/22 08:20:46;;;;;;;63.40;61.33;;;;;;;;;;5036326;28;20195;-91
2023/09/22 08:23:12;;;;;;;51.50;49.83;;;;;;;;;;5032198;28;20190;-92
2023/09/22 08:25:38;;;;;;;53.43;51.53;;;;;;;;;;5022209;28;20189;-90
2023/09/22 08:28:04;;;;;;;52.40;50.57;;;;;;;;;;5028966;28;20680;-91
2023/09/22 08:30:30;;;;;;;49.73;47.87;;;;;;;;;;5020678;28;20188;-91
2023/09/22 08:32:58;;;;;;;56.50;54.30;;;;;;;;;;5029788;28;20253;-92
2023/09/22 08:35:24;;;;;;;49.50;47.80;;;;;;;;;;5023187;28;20216;-91
2023/09/22 08:37:50;;;;;;;51.47;49.37;;;;;;;;;;5033009;28;20885;-92
2023/09/22 08:40:17;;;;;;;51.37;49.67;;;;;;;;;;5028286;28;20248;-92
2023/09/22 08:42:44;;;;;;;54.70;52.83;;;;;;;;;;5030338;28;20191;-90
2023/09/22 08:45:11;;;;;;;52.97;51.30;;;;;;;;;;5008696;28;20292;-92
2023/09/22 08:47:41;;;;;;;56.60;54.77;;;;;;;;;;5033387;28;20255;-91
2023/09/22 08:50:07;;;;;;;55.43;53.60;;;;;;;;;;5035605;28;20773;-91
2023/09/22 08:52:33;;;;;;;53.07;51.33;;;;;;;;;;5008079;28;20203;-91
2023/09/22 08:55:03;;;;;;;57.23;54.93;;;;;;;;;;5028959;28;20236;-91
2023/09/22 08:57:30;;;;;;;55.83;53.97;;;;;;;;;;5022472;28;20677;-96
2023/09/22 08:59:57;;;;;;;55.83;53.93;;;;;;;;;;5038182;28;20188;-92
2023/09/22 09:02:26;;;;;;;55.63;53.83;;;;;;;;;;5045091;28;20180;-93
2023/09/22 09:04:52;;;;;;;60.23;58.23;;;;;;;;;;5032160;28;20212;-93
2023/09/22 09:07:19;;;;;;;59.60;57.53;;;;;;;;;;5034586;28;20211;-93
2023/09/22 09:09:47;;;;;;;62.40;60.30;;;;;;;;;;5039477;28;20257;-94
2023/09/22 09:12:13;;;;;;;60.07;57.97;;;;;;;;;;5025790;28;20191;-93
2023/09/22 09:14:40;;;;;;;65.03;62.97;;;;;;;;;;5045304;28;20208;-94
2023/09/22 09:17:18;;;;;;;60.30;58.40;;;;;;;;;;5028368;28;20206;-93
2023/09/22 09:19:46;;;;;;;63.37;61.27;;;;;;;;;;5039376;28;20177;-94
2023/09/22 09:22:14;;;;;;;62.37;60.40;;;;;;;;;;5043969;28;20183;-93
2023/09/22 09:24:41;;;;;;;64.97;62.97;;;;;;;;;;5046528;28;20706;-93
2023/09/22 09:27:17;;;;;;;60.20;58.20;;;;;;;;;;5026598;28;20191;-93
2023/09/22 09:29:46;;;;;;;67.07;64.78;;;;;;;;;;5043986;28;20215;-93
2023/09/22 09:32:31;;;;;;;61.28;59.35;;;;;;;;;;5020361;28;20186;-92
2023/09/22 09:34:57;;;;;;;68.63;66.43;;;;;;;;;;5029035;28;20261;-94
2023/09/22 09:37:24;;;;;;;68.33;66.13;;;;;;;;;;5036927;28;20210;-94
2023/09/22 09:39:55;;;;;;;71.38;69.07;;;;;;;;;;5023765;28;20214;-93
2023/09/22 09:42:23;;;;;;;75.00;72.65;;;;;;;;;;5033738;28;20194;-94
2023/09/22 09:45:00;;;;;;;71.10;68.85;;;;;;;;;;5039171;28;20213;-93
2023/09/22 09:47:35;;;;;;;79.80;77.18;;;;;;;;;;5012095;28;20199;-92
2023/09/22 09:50:04;;;;;;;75.55;73.15;;;;;;;;;;5004342;28;20212;-92
2023/09/22 09:52:31;;;;;;;81.10;78.60;;;;;;;;;;5040989;28;20184;-92
2023/09/22 09:55:13;;;;;;;83.18;80.57;;;;;;;;;;5034230;28;20712;-92
2023/09/22 09:57:40;;;;;;;74.20;71.85;;;;;;;;;;5021367;28;20185;-92
2023/09/22 10:00:11;;;;;;;76.68;74.30;;;;;;;;;;5040772;28;20226;-92
2023/09/22 10:02:39;;;;;;;87.70;85.00;;;;;;;;;;5030903;28;20186;-91
2023/09/22 10:05:07;;;;;;;56.20;54.42;;;;;;;;;;5020455;28;20229;-91
2023/09/22 10:07:35;;;;;;;73.40;70.97;;;;;;;;;;5031517;28;20214;-92
2023/09/22 10:10:02;;;;;;;51.75;50.05;;;;;;;;;;5014428;28;20278;-92
2023/09/22 10:12:28;;;;;;;50.15;48.35;;;;;;;;;;5032192;28;20185;-93
2023/09/22 10:14:59;;;;;;;46.45;44.95;;;;;;;;;;5039070;28;20215;-91
2023/09/22 10:17:25;;;;;;;61.90;59.72;;;;;;;;;;5040030;28;20189;-93
2023/09/22 10:19:52;;;;;;;68.10;65.85;;;;;;;;;;5016079;28;20663;-92
2023/09/22 10:22:18;;;;;;;56.38;54.55;;;;;;;;;;5038040;28;20196;-92
2023/09/22 10:24:44;;;;;;;95.90;93.00;;;;;;;;;;5024141;28;20217;-92
2023/09/22 10:27:14;;;;;;;60.60;58.70;;;;;;;;;;5039816;28;20217;-92
2023/09/22 10:29:54;;;;;;;56.70;54.92;;;;;;;;;;5038993;28;20204;-92
2023/09/22 10:32:27;;;;;;;84.40;81.88;;;;;;;;;;5021612;28;20212;-91
2023/09/22 10:34:56;;;;;;;77.53;75.03;;;;;;;;;;5039157;28;20218;-91
2023/09/22 10:37:27;;;;;;;91.38;88.63;;;;;;;;;;5031274;28;20192;-92
2023/09/22 10:39:56;;;;;;;103.82;100.70;;;;;;;;;;5022369;28;20208;-92
2023/09/22 10:42:24;;;;;;;112.82;109.40;;;;;;;;;;5040527;28;20192;-92
2023/09/22 10:44:59;;;;;;;107.40;104.15;;;;;;;;;;5027478;28;20289;-93
2023/09/22 10:47:44;;;;;;;119.78;116.18;;;;;;;;;;5034532;28;20192;-92
2023/09/22 10:50:15;;;;;;;133.82;129.85;;;;;;;;;;5026419;28;20184;-92
2023/09/22 10:53:03;;;;;;;125.55;121.55;;;;;;;;;;5039298;28;20208;-92
2023/09/22 10:55:36;;;;;;;146.48;142.15;;;;;;;;;;5034735;28;20233;-92
2023/09/22 10:58:06;;;;;;;141.05;136.93;;;;;;;;;;5031851;28;20177;-92
2023/09/22 11:00:38;;;;;;;121.20;117.53;;;;;;;;;;5038925;28;20211;-92
2023/09/22 11:03:11;;;;;;;124.22;120.50;;;;;;;;;;5038884;28;20196;-93
2023/09/22 11:05:41;;;;;;;129.38;125.57;;;;;;;;;;5020502;28;20200;-92
2023/09/22 11:08:14;;;;;;;136.88;132.70;;;;;;;;;;5039643;28;20717;-92
2023/09/22 11:10:42;;;;;;;141.85;137.57;;;;;;;;;;5024086;28;20202;-93
2023/09/22 11:13:08;;;;;;;147.52;142.98;;;;;;;;;;5034840;28;20181;-94
2023/09/22 11:15:35;;;;;;;133.20;129.27;;;;;;;;;;5022935;28;20200;-94
2023/09/22 11:18:01;;;;;;;148.50;144.05;;;;;;;;;;5042082;28;20189;-93
2023/09/22 11:20:28;;;;;;;152.05;147.48;;;;;;;;;;5026155;28;20204;-93
2023/09/22 11:22:56;;;;;;;142.15;137.68;;;;;;;;;;5049220;28;20177;-93
2023/09/22 11:25:25;;;;;;;145.65;141.27;;;;;;;;;;5040503;28;20201;-94
2023/09/22 11:27:53;;;;;;;146.60;142.18;;;;;;;;;;5044027;28;20255;-92
2023/09/22 11:30:20;;;;;;;144.10;139.75;;;;;;;;;;5042988;28;20199;-93
2023/09/22 11:32:47;;;;;;;136.80;132.68;;;;;;;;;;5044796;28;20208;-93
2023/09/22 11:35:33;;;;;;;139.57;135.48;;;;;;;;;;5026940;28;20218;-93
2023/09/22 11:38:20;;;;;;;137.07;133.02;;;;;;;;;;5033119;28;20177;-93
2023/09/22 11:40:46;;;;;;;139.52;135.35;;;;;;;;;;5012650;28;20200;-93
2023/09/22 11:43:13;;;;;;;135.63;131.57;;;;;;;;;;5023291;28;20206;-93
2023/09/22 11:45:39;;;;;;;131.65;127.72;;;;;;;;;;5034804;28;20193;-92
2023/09/22 11:48:06;;;;;;;133.68;129.68;;;;;;;;;;5039427;28;20197;-93
2023/09/22 11:50:32;;;;;;;126.45;122.53;;;;;;;;;;5037675;28;20185;-94
2023/09/22 11:53:09;;;;;;;137.70;133.30;;;;;;;;;;5043146;28;20275;-94
2023/09/22 11:55:35;;;;;;;126.40;122.60;;;;;;;;;;5025415;28;20213;-92
2023/09/22 11:58:01;;;;;;;102.70;99.70;;;;;;;;;;5021515;28;20188;-93
2023/09/22 12:00:28;;;;;;;108.55;105.25;;;;;;;;;;5037085;28;20714;-93
2023/09/22 12:02:55;;;;;;;116.45;112.97;;;;;;;;;;5025972;28;20659;-92
2023/09/22 12:05:21;;;;;;;106.78;103.15;;;;;;;;;;5032251;28;20205;-95
2023/09/22 12:07:47;;;;;;;55.67;53.60;;;;;;;;;;5027247;28;20187;-95
2023/09/22 12:10:13;;;;;;;56.97;54.97;;;;;;;;;;5026084;28;20200;-96
2023/09/22 12:12:39;;;;;;;52.00;50.15;;;;;;;;;;5020825;28;20181;-96
2023/09/22 12:15:09;;;;;;;49.45;47.78;;;;;;;;;;5056338;28;20204;-96
2023/09/22 12:17:35;;;;;;;50.53;48.80;;;;;;;;;;5039089;28;20192;-96
2023/09/22 12:20:04;;;;;;;72.40;70.18;;;;;;;;;;5036988;28;20188;-94
2023/09/22 12:22:39;;;;;;;79.20;76.75;;;;;;;;;;5041810;28;20170;-94
2023/09/22 12:25:07;;;;;;;125.57;121.88;;;;;;;;;;5038580;28;20238;-92
2023/09/22 12:27:35;;;;;;;136.85;132.75;;;;;;;;;;5041967;28;20218;-93
2023/09/22 12:30:02;;;;;;;137.88;133.80;;;;;;;;;;5042583;28;20745;-93
2023/09/22 12:32:28;;;;;;;150.70;145.98;;;;;;;;;;5016532;28;20594;-92
2023/09/22 12:34:54;;;;;;;169.07;164.18;;;;;;;;;;5041081;28;20616;-94
2023/09/22 12:37:20;;;;;;;164.07;159.27;;;;;;;;;;5034612;28;20181;-92
2023/09/22 12:39:48;;;;;;;149.38;144.85;;;;;;;;;;5032109;28;20182;-92
2023/09/22 12:42:16;;;;;;;117.45;113.82;;;;;;;;;;5041435;28;20193;-93
2023/09/22 12:44:42;;;;;;;127.10;123.30;;;;;;;;;;5044341;28;20268;-92
2023/09/22 12:47:08;;;;;;;124.88;121.10;;;;;;;;;;5041239;28;20185;-93
2023/09/22 12:49:35;;;;;;;94.13;91.07;;;;;;;;;;5019342;28;20198;-93
2023/09/22 12:52:02;;;;;;;128.80;124.75;;;;;;;;;;5042891;28;20185;-93
2023/09/22 12:54:28;;;;;;;126.50;122.63;;;;;;;;;;5033836;28;20288;-92
2023/09/22 12:56:54;;;;;;;142.10;137.95;;;;;;;;;;5037680;28;20271;-93
2023/09/22 12:59:20;;;;;;;107.85;104.57;;;;;;;;;;5023448;28;20189;-92
2023/09/22 13:01:46;;;;;;;117.00;113.50;;;;;;;;;;5039716;28;20192;-93
2023/09/22 13:04:12;;;;;;;102.25;99.20;;;;;;;;;;5040332;28;20236;-93
2023/09/22 13:06:40;;;;;;;1999.90;999.90;;;;;;;;;;5039553;28;20569;-92
2023/09/22 13:09:06;;;;;;;1999.90;999.90;;;;;;;;;;5028430;28;20213;-93
2023/09/22 13:11:33;;;;;;;1999.90;999.90;;;;;;;;;;5021456;28;20185;-91
2023/09/22 13:14:01;;;;;;;1999.90;999.90;;;;;;;;;;5021288;28;20449;-93
2023/09/22 13:16:27;;;;;;;95.28;92.28;;;;;;;;;;5037962;28;20247;-92
2023/09/22 13:18:53;;;;;;;1999.90;999.90;;;;;;;;;;5019104;28;20203;-93
2023/09/22 13:21:23;;;;;;;1999.90;999.90;;;;;;;;;;5020093;28;20197;-92
2023/09/22 13:23:49;;;;;;;1999.90;999.90;;;;;;;;;;5020600;28;20204;-92
2023/09/22 13:26:22;;;;;;;1999.90;999.90;;;;;;;;;;5031461;28;20186;-92
2023/09/22 13:29:00;;;;;;;1999.90;999.90;;;;;;;;;;5043024;28;20231;-92
2023/09/22 13:31:28;;;;;;;1999.90;999.90;;;;;;;;;;5024234;28;20192;-93
2023/09/22 13:33:56;;;;;;;1999.90;999.90;;;;;;;;;;5031189;28;20637;-93
2023/09/22 13:36:23;;;;;;;1999.90;999.90;;;;;;;;;;5029453;28;20261;-91
2023/09/22 13:38:49;;;;;;;1999.90;999.90;;;;;;;;;;5040851;28;20226;-91
2023/09/22 13:41:16;;;;;;;1999.90;999.90;;;;;;;;;;5017330;28;20744;-93
2023/09/22 13:43:45;;;;;;;1999.90;999.90;;;;;;;;;;5023782;28;20212;-91
2023/09/22 13:46:15;;;;;;;1999.90;999.90;;;;;;;;;;5040936;28;20216;-92
2023/09/22 13:48:42;;;;;;;1999.90;999.90;;;;;;;;;;5040170;28;20205;-91
2023/09/22 13:51:11;;;;;;;103.95;100.75;;;;;;;;;;5039300;28;20181;-91
2023/09/22 13:53:38;;;;;;;108.03;104.78;;;;;;;;;;5023181;28;20291;-93
2023/09/22 13:56:04;;;;;;;104.32;101.13;;;;;;;;;;5035308;28;20216;-92
2023/09/22 13:58:36;;;;;;;103.13;99.82;;;;;;;;;;5036007;28;20235;-92
2023/09/22 14:01:17;;;;;;;109.20;105.82;;;;;;;;;;5022656;28;20581;-91
2023/09/22 14:03:51;;;;;;;109.93;106.50;;;;;;;;;;5037605;28;20264;-91
2023/09/22 14:06:35;;;;;;;107.75;104.47;;;;;;;;;;5018464;28;20189;-92
2023/09/22 14:09:23;;;;;;;111.72;108.30;;;;;;;;;;5018231;28;21001;-92
2023/09/22 14:11:50;;;;;;;127.63;123.65;;;;;;;;;;5031955;28;20181;-91
2023/09/22 14:14:20;;;;;;;121.80;118.03;;;;;;;;;;5017297;28;20231;-91